Terminal Aerodrome Forecast
Issued by NWS Cleveland, OH

Home | Current Version | Previous Version | Graphics & Text | Print | Product List | Glossary On
Versions: 1 2 3 4 5 6 7 8 9 10 11 12 13 14 15 16 17 18 19 20 21 22 23 24 25
037
FTUS41 KCLE 290818 AAB
TAFMFD
TAF AMD
KMFD 290818Z 2908/3006 34005KT 2SM BR OVC002
      TEMPO 2909/2912 3/4SM BR OVC001
     FM291300 35005KT 3SM BR OVC004
     FM291500 32006KT P6SM OVC008
     FM291800 35007KT P6SM OVC015
     FM300100 36004KT P6SM BKN035=

USA.gov is the U.S. government's official web portal to all federal, state and local government web resources and services.